sensor_id;sensor_type;location;lat;lon;timestamp;temperature;humidity
32614;DHT22;19031;51.400;6.770;2023-04-02T00:08:36;7.50;99.90
32614;DHT22;19031;51.400;6.770;2023-04-02T00:11:03;7.40;99.90
32614;DHT22;19031;51.400;6.770;2023-04-02T00:13:38;7.40;99.90
32614;DHT22;19031;51.400;6.770;2023-04-02T00:16:07;7.30;99.90
32614;DHT22;19031;51.400;6.770;2023-04-02T00:18:41;7.30;99.90
32614;DHT22;19031;51.400;6.770;2023-04-02T00:21:25;7.40;99.90
32614;DHT22;19031;51.400;6.770;2023-04-02T00:23:53;7.40;99.90
32614;DHT22;19031;51.400;6.770;2023-04-02T00:26:31;7.40;99.90
32614;DHT22;19031;51.400;6.770;2023-04-02T00:28:59;7.50;99.90
32614;DHT22;19031;51.400;6.770;2023-04-02T00:31:25;7.40;99.90
32614;DHT22;19031;51.400;6.770;2023-04-02T00:33:51;7.30;99.90
32614;DHT22;19031;51.400;6.770;2023-04-02T00:36:20;7.40;99.90
32614;DHT22;19031;51.400;6.770;2023-04-02T00:38:49;7.30;99.90
32614;DHT22;19031;51.400;6.770;2023-04-02T00:41:27;7.30;99.90
32614;DHT22;19031;51.400;6.770;2023-04-02T00:43:55;7.20;99.90
32614;DHT22;19031;51.400;6.770;2023-04-02T00:46:28;7.20;99.90
32614;DHT22;19031;51.400;6.770;2023-04-02T00:49:11;7.10;99.90
32614;DHT22;19031;51.400;6.770;2023-04-02T00:51:50;7.00;99.90
32614;DHT22;19031;51.400;6.770;2023-04-02T00:54:19;6.90;99.90
32614;DHT22;19031;51.400;6.770;2023-04-02T00:56:48;7.00;99.90
32614;DHT22;19031;51.400;6.770;2023-04-02T00:59:32;6.90;99.90
32614;DHT22;19031;51.400;6.770;2023-04-02T01:04:39;6.90;99.90
32614;DHT22;19031;51.400;6.770;2023-04-02T01:07:08;6.80;99.90
32614;DHT22;19031;51.400;6.770;2023-04-02T01:09:47;6.80;99.90
32614;DHT22;19031;51.400;6.770;2023-04-02T01:12:51;6.90;99.90
32614;DHT22;19031;51.400;6.770;2023-04-02T01:15:36;6.80;99.90
32614;DHT22;19031;51.400;6.770;2023-04-02T01:21:13;6.80;99.90
32614;DHT22;19031;51.400;6.770;2023-04-02T01:24:00;6.70;99.90
32614;DHT22;19031;51.400;6.770;2023-04-02T01:26:47;6.70;99.90
32614;DHT22;19031;51.400;6.770;2023-04-02T01:29:34;6.70;99.90
32614;DHT22;19031;51.400;6.770;2023-04-02T01:32:12;6.60;99.90
32614;DHT22;19031;51.400;6.770;2023-04-02T01:34:40;6.70;99.90
32614;DHT22;19031;51.400;6.770;2023-04-02T01:37:35;6.70;99.90
32614;DHT22;19031;51.400;6.770;2023-04-02T01:40:25;6.70;99.90
32614;DHT22;19031;51.400;6.770;2023-04-02T01:43:05;6.70;99.90
32614;DHT22;19031;51.400;6.770;2023-04-02T01:45:35;6.60;99.90
32614;DHT22;19031;51.400;6.770;2023-04-02T01:48:04;6.70;99.90
32614;DHT22;19031;51.400;6.770;2023-04-02T01:50:34;6.60;99.90
32614;DHT22;19031;51.400;6.770;2023-04-02T01:53:06;6.70;99.90
32614;DHT22;19031;51.400;6.770;2023-04-02T01:55:48;6.70;99.90
32614;DHT22;19031;51.400;6.770;2023-04-02T01:58:18;6.60;99.90
32614;DHT22;19031;51.400;6.770;2023-04-02T02:00:50;6.60;99.90
32614;DHT22;19031;51.400;6.770;2023-04-02T02:03:18;6.60;99.90
32614;DHT22;19031;51.400;6.770;2023-04-02T02:05:44;6.50;99.90
32614;DHT22;19031;51.400;6.770;2023-04-02T02:08:30;6.50;99.90
32614;DHT22;19031;51.400;6.770;2023-04-02T02:10:57;6.50;99.90
32614;DHT22;19031;51.400;6.770;2023-04-02T02:13:22;6.50;99.90
32614;DHT22;19031;51.400;6.770;2023-04-02T02:15:48;6.50;99.90
32614;DHT22;19031;51.400;6.770;2023-04-02T02:18:20;6.40;99.90
32614;DHT22;19031;51.400;6.770;2023-04-02T02:20:48;6.40;99.90
32614;DHT22;19031;51.400;6.770;2023-04-02T02:23:14;6.30;99.90
32614;DHT22;19031;51.400;6.770;2023-04-02T02:25:40;6.20;99.90
32614;DHT22;19031;51.400;6.770;2023-04-02T02:28:09;6.20;99.90
32614;DHT22;19031;51.400;6.770;2023-04-02T02:30:42;6.30;99.90
32614;DHT22;19031;51.400;6.770;2023-04-02T02:33:28;6.30;99.90
32614;DHT22;19031;51.400;6.770;2023-04-02T02:36:06;6.30;99.90
32614;DHT22;19031;51.400;6.770;2023-04-02T02:38:54;6.20;99.90
32614;DHT22;19031;51.400;6.770;2023-04-02T02:46:34;6.20;99.90
32614;DHT22;19031;51.400;6.770;2023-04-02T02:49:02;6.30;99.90
32614;DHT22;19031;51.400;6.770;2023-04-02T02:51:39;6.30;99.90
32614;DHT22;19031;51.400;6.770;2023-04-02T02:54:07;6.30;99.90
32614;DHT22;19031;51.400;6.770;2023-04-02T02:56:35;6.20;99.90
32614;DHT22;19031;51.400;6.770;2023-04-02T02:59:04;6.30;99.90
32614;DHT22;19031;51.400;6.770;2023-04-02T03:01:31;6.30;99.90
32614;DHT22;19031;51.400;6.770;2023-04-02T03:03:58;6.30;99.90
32614;DHT22;19031;51.400;6.770;2023-04-02T03:06:24;6.30;99.90
32614;DHT22;19031;51.400;6.770;2023-04-02T03:09:15;6.20;99.90
32614;DHT22;19031;51.400;6.770;2023-04-02T03:11:51;6.10;99.90
32614;DHT22;19031;51.400;6.770;2023-04-02T03:14:45;6.20;99.90
32614;DHT22;19031;51.400;6.770;2023-04-02T03:17:27;6.10;99.90
32614;DHT22;19031;51.400;6.770;2023-04-02T03:20:00;6.20;99.90
32614;DHT22;19031;51.400;6.770;2023-04-02T03:22:35;6.10;99.90
32614;DHT22;19031;51.400;6.770;2023-04-02T03:25:11;6.20;99.90
32614;DHT22;19031;51.400;6.770;2023-04-02T03:27:44;6.20;99.90
32614;DHT22;19031;51.400;6.770;2023-04-02T03:30:40;6.00;99.90
32614;DHT22;19031;51.400;6.770;2023-04-02T03:34:12;6.00;99.90
32614;DHT22;19031;51.400;6.770;2023-04-02T03:41:45;5.90;99.90
32614;DHT22;19031;51.400;6.770;2023-04-02T03:46:56;5.90;99.90
32614;DHT22;19031;51.400;6.770;2023-04-02T03:52:23;5.90;99.90
32614;DHT22;19031;51.400;6.770;2023-04-02T03:54:50;5.80;99.90
32614;DHT22;19031;51.400;6.770;2023-04-02T03:58:26;5.80;99.90
32614;DHT22;19031;51.400;6.770;2023-04-02T04:03:08;5.80;99.90
32614;DHT22;19031;51.400;6.770;2023-04-02T04:05:37;5.80;99.90
32614;DHT22;19031;51.400;6.770;2023-04-02T04:08:15;5.80;99.90
32614;DHT22;19031;51.400;6.770;2023-04-02T04:10:43;5.70;99.90
32614;DHT22;19031;51.400;6.770;2023-04-02T04:13:12;5.70;99.90
32614;DHT22;19031;51.400;6.770;2023-04-02T04:15:40;5.80;99.90
32614;DHT22;19031;51.400;6.770;2023-04-02T04:18:31;5.80;99.90
32614;DHT22;19031;51.400;6.770;2023-04-02T04:24:14;5.90;99.90
32614;DHT22;19031;51.400;6.770;2023-04-02T04:26:56;5.90;99.90
32614;DHT22;19031;51.400;6.770;2023-04-02T04:29:39;5.80;99.90
32614;DHT22;19031;51.400;6.770;2023-04-02T04:35:24;5.70;99.90
32614;DHT22;19031;51.400;6.770;2023-04-02T04:37:56;5.60;99.90
32614;DHT22;19031;51.400;6.770;2023-04-02T04:40:33;5.70;99.90
32614;DHT22;19031;51.400;6.770;2023-04-02T04:43:03;5.70;99.90
32614;DHT22;19031;51.400;6.770;2023-04-02T04:45:43;5.70;99.90
32614;DHT22;19031;51.400;6.770;2023-04-02T04:48:28;5.60;99.90
32614;DHT22;19031;51.400;6.770;2023-04-02T04:50:59;5.70;99.90
32614;DHT22;19031;51.400;6.770;2023-04-02T04:53:28;5.70;99.90
32614;DHT22;19031;51.400;6.770;2023-04-02T04:55:56;5.70;99.90
32614;DHT22;19031;51.400;6.770;2023-04-02T04:58:43;5.70;99.90
32614;DHT22;19031;51.400;6.770;2023-04-02T05:01:18;5.50;99.90
32614;DHT22;19031;51.400;6.770;2023-04-02T05:03:56;5.50;99.90
32614;DHT22;19031;51.400;6.770;2023-04-02T05:06:25;5.40;99.90
32614;DHT22;19031;51.400;6.770;2023-04-02T05:09:02;5.40;99.90
32614;DHT22;19031;51.400;6.770;2023-04-02T05:19:50;5.30;99.90
32614;DHT22;19031;51.400;6.770;2023-04-02T05:22:34;5.10;99.90
32614;DHT22;19031;51.400;6.770;2023-04-02T05:30:52;5.10;99.90
32614;DHT22;19031;51.400;6.770;2023-04-02T05:33:32;5.30;99.90
32614;DHT22;19031;51.400;6.770;2023-04-02T05:36:12;5.20;99.90
32614;DHT22;19031;51.400;6.770;2023-04-02T05:38:43;5.30;99.90
32614;DHT22;19031;51.400;6.770;2023-04-02T05:41:28;5.20;99.90
32614;DHT22;19031;51.400;6.770;2023-04-02T05:44:15;5.20;99.90
32614;DHT22;19031;51.400;6.770;2023-04-02T05:46:50;5.20;99.90
32614;DHT22;19031;51.400;6.770;2023-04-02T05:49:29;5.30;99.90
32614;DHT22;19031;51.400;6.770;2023-04-02T05:51:59;5.20;99.90
32614;DHT22;19031;51.400;6.770;2023-04-02T05:54:31;5.30;99.90
32614;DHT22;19031;51.400;6.770;2023-04-02T05:57:19;5.30;99.90
32614;DHT22;19031;51.400;6.770;2023-04-02T05:59:50;5.20;99.90
32614;DHT22;19031;51.400;6.770;2023-04-02T06:02:30;5.30;99.90
32614;DHT22;19031;51.400;6.770;2023-04-02T06:07:34;5.10;99.90
32614;DHT22;19031;51.400;6.770;2023-04-02T06:10:23;5.00;99.90
32614;DHT22;19031;51.400;6.770;2023-04-02T06:12:58;4.90;99.90
32614;DHT22;19031;51.400;6.770;2023-04-02T06:15:30;5.10;99.90
32614;DHT22;19031;51.400;6.770;2023-04-02T06:18:06;5.10;99.90
32614;DHT22;19031;51.400;6.770;2023-04-02T06:20:32;5.10;99.90
32614;DHT22;19031;51.400;6.770;2023-04-02T06:23:25;5.10;99.90
32614;DHT22;19031;51.400;6.770;2023-04-02T06:29:13;5.00;99.90
32614;DHT22;19031;51.400;6.770;2023-04-02T06:31:42;5.10;99.90
32614;DHT22;19031;51.400;6.770;2023-04-02T06:34:20;5.00;99.90
32614;DHT22;19031;51.400;6.770;2023-04-02T06:36:46;4.90;99.90
32614;DHT22;19031;51.400;6.770;2023-04-02T06:39:24;5.00;99.90
32614;DHT22;19031;51.400;6.770;2023-04-02T06:44:31;5.10;99.90
32614;DHT22;19031;51.400;6.770;2023-04-02T06:47:01;5.00;99.90
32614;DHT22;19031;51.400;6.770;2023-04-02T06:52:35;5.00;99.90
32614;DHT22;19031;51.400;6.770;2023-04-02T06:58:17;4.90;99.90
32614;DHT22;19031;51.400;6.770;2023-04-02T07:00:45;4.90;99.90
32614;DHT22;19031;51.400;6.770;2023-04-02T07:03:20;5.00;99.90
32614;DHT22;19031;51.400;6.770;2023-04-02T07:05:47;5.00;99.90
32614;DHT22;19031;51.400;6.770;2023-04-02T07:08:13;5.00;99.90
32614;DHT22;19031;51.400;6.770;2023-04-02T07:10:38;5.10;99.90
32614;DHT22;19031;51.400;6.770;2023-04-02T07:13:04;5.10;99.90
32614;DHT22;19031;51.400;6.770;2023-04-02T07:15:30;5.20;99.90
32614;DHT22;19031;51.400;6.770;2023-04-02T07:17:57;5.20;99.90
32614;DHT22;19031;51.400;6.770;2023-04-02T07:20:29;5.30;99.90
32614;DHT22;19031;51.400;6.770;2023-04-02T07:22:55;5.20;99.90
32614;DHT22;19031;51.400;6.770;2023-04-02T07:25:22;5.30;99.90
32614;DHT22;19031;51.400;6.770;2023-04-02T07:27:49;5.20;99.90
32614;DHT22;19031;51.400;6.770;2023-04-02T07:30:15;5.20;99.90
32614;DHT22;19031;51.400;6.770;2023-04-02T07:32:40;5.30;99.90
32614;DHT22;19031;51.400;6.770;2023-04-02T07:35:07;5.40;99.90
32614;DHT22;19031;51.400;6.770;2023-04-02T07:37:32;5.50;99.90
32614;DHT22;19031;51.400;6.770;2023-04-02T07:39:58;5.50;99.90
32614;DHT22;19031;51.400;6.770;2023-04-02T07:42:23;5.40;99.90
32614;DHT22;19031;51.400;6.770;2023-04-02T07:44:49;5.40;99.90
32614;DHT22;19031;51.400;6.770;2023-04-02T07:47:15;5.30;99.90
32614;DHT22;19031;51.400;6.770;2023-04-02T07:49:41;5.30;99.90
32614;DHT22;19031;51.400;6.770;2023-04-02T07:52:06;5.40;99.90
32614;DHT22;19031;51.400;6.770;2023-04-02T07:54:32;5.20;99.90
32614;DHT22;19031;51.400;6.770;2023-04-02T07:56:58;5.20;99.90
32614;DHT22;19031;51.400;6.770;2023-04-02T07:59:24;5.40;99.90
32614;DHT22;19031;51.400;6.770;2023-04-02T08:01:51;5.30;99.90
32614;DHT22;19031;51.400;6.770;2023-04-02T08:04:19;5.40;99.90
32614;DHT22;19031;51.400;6.770;2023-04-02T08:06:45;5.40;99.90
32614;DHT22;19031;51.400;6.770;2023-04-02T08:09:12;5.20;99.90
32614;DHT22;19031;51.400;6.770;2023-04-02T08:11:38;5.30;99.90
32614;DHT22;19031;51.400;6.770;2023-04-02T08:14:09;5.30;99.90
32614;DHT22;19031;51.400;6.770;2023-04-02T08:16:46;5.40;99.90
32614;DHT22;19031;51.400;6.770;2023-04-02T08:19:12;5.20;99.90
32614;DHT22;19031;51.400;6.770;2023-04-02T08:21:38;5.30;99.90
32614;DHT22;19031;51.400;6.770;2023-04-02T08:24:03;5.30;99.90
32614;DHT22;19031;51.400;6.770;2023-04-02T08:26:29;5.20;99.90
32614;DHT22;19031;51.400;6.770;2023-04-02T08:28:55;5.30;99.90
32614;DHT22;19031;51.400;6.770;2023-04-02T08:31:20;5.30;99.90
32614;DHT22;19031;51.400;6.770;2023-04-02T08:33:47;5.30;99.90
32614;DHT22;19031;51.400;6.770;2023-04-02T08:36:17;5.40;99.90
32614;DHT22;19031;51.400;6.770;2023-04-02T08:38:43;5.40;99.90
32614;DHT22;19031;51.400;6.770;2023-04-02T08:41:19;5.40;99.90
32614;DHT22;19031;51.400;6.770;2023-04-02T08:44:14;5.40;99.90
32614;DHT22;19031;51.400;6.770;2023-04-02T08:47:05;5.50;99.90
32614;DHT22;19031;51.400;6.770;2023-04-02T08:49:41;5.60;99.90
32614;DHT22;19031;51.400;6.770;2023-04-02T08:52:22;5.70;99.90
32614;DHT22;19031;51.400;6.770;2023-04-02T08:54:49;5.60;99.90
32614;DHT22;19031;51.400;6.770;2023-04-02T08:57:24;5.80;99.90
32614;DHT22;19031;51.400;6.770;2023-04-02T09:00:04;5.90;99.90
32614;DHT22;19031;51.400;6.770;2023-04-02T09:02:39;6.10;99.90
32614;DHT22;19031;51.400;6.770;2023-04-02T09:05:08;6.10;99.90
32614;DHT22;19031;51.400;6.770;2023-04-02T09:07:40;6.00;99.90
32614;DHT22;19031;51.400;6.770;2023-04-02T09:10:14;6.20;99.90
32614;DHT22;19031;51.400;6.770;2023-04-02T09:12:42;6.30;99.90
32614;DHT22;19031;51.400;6.770;2023-04-02T09:17:39;6.30;99.90
32614;DHT22;19031;51.400;6.770;2023-04-02T09:22:47;6.50;99.90
32614;DHT22;19031;51.400;6.770;2023-04-02T09:25:26;6.40;99.90
32614;DHT22;19031;51.400;6.770;2023-04-02T09:27:54;6.50;99.90
32614;DHT22;19031;51.400;6.770;2023-04-02T09:33:05;6.50;99.90
32614;DHT22;19031;51.400;6.770;2023-04-02T09:35:53;6.50;99.90
32614;DHT22;19031;51.400;6.770;2023-04-02T09:43:25;6.60;99.90
32614;DHT22;19031;51.400;6.770;2023-04-02T09:48:33;6.50;99.90
32614;DHT22;19031;51.400;6.770;2023-04-02T09:51:13;6.60;99.90
32614;DHT22;19031;51.400;6.770;2023-04-02T09:53:49;6.70;99.90
32614;DHT22;19031;51.400;6.770;2023-04-02T09:58:43;6.80;99.90
32614;DHT22;19031;51.400;6.770;2023-04-02T10:01:28;6.60;99.90
32614;DHT22;19031;51.400;6.770;2023-04-02T10:03:54;6.70;99.90
32614;DHT22;19031;51.400;6.770;2023-04-02T10:06:20;7.00;99.90
32614;DHT22;19031;51.400;6.770;2023-04-02T10:08:46;7.20;99.90
32614;DHT22;19031;51.400;6.770;2023-04-02T10:11:19;6.90;99.90
32614;DHT22;19031;51.400;6.770;2023-04-02T10:13:53;7.10;99.90
32614;DHT22;19031;51.400;6.770;2023-04-02T10:16:27;6.90;99.90
32614;DHT22;19031;51.400;6.770;2023-04-02T10:19:14;7.00;99.90
32614;DHT22;19031;51.400;6.770;2023-04-02T10:21:43;7.00;99.90
32614;DHT22;19031;51.400;6.770;2023-04-02T10:24:13;7.20;99.90
32614;DHT22;19031;51.400;6.770;2023-04-02T10:32:39;7.20;99.90
32614;DHT22;19031;51.400;6.770;2023-04-02T10:35:12;7.30;99.90
32614;DHT22;19031;51.400;6.770;2023-04-02T10:37:45;7.20;99.90
32614;DHT22;19031;51.400;6.770;2023-04-02T10:40:28;7.10;99.90
32614;DHT22;19031;51.400;6.770;2023-04-02T10:51:32;7.20;99.90
32614;DHT22;19031;51.400;6.770;2023-04-02T11:00:04;7.30;99.90
32614;DHT22;19031;51.400;6.770;2023-04-02T11:05:10;7.30;99.90
32614;DHT22;19031;51.400;6.770;2023-04-02T11:07:48;7.20;99.90
32614;DHT22;19031;51.400;6.770;2023-04-02T11:10:19;7.10;99.90
32614;DHT22;19031;51.400;6.770;2023-04-02T11:13:17;7.10;99.90
32614;DHT22;19031;51.400;6.770;2023-04-02T11:15:48;7.10;99.90
32614;DHT22;19031;51.400;6.770;2023-04-02T11:18:31;7.10;99.90
32614;DHT22;19031;51.400;6.770;2023-04-02T11:26:47;7.00;99.90
32614;DHT22;19031;51.400;6.770;2023-04-02T11:29:27;7.00;99.90
32614;DHT22;19031;51.400;6.770;2023-04-02T11:37:44;7.10;99.90
32614;DHT22;19031;51.400;6.770;2023-04-02T11:42:37;7.10;99.90
32614;DHT22;19031;51.400;6.770;2023-04-02T11:50:31;7.30;99.90
32614;DHT22;19031;51.400;6.770;2023-04-02T12:07:26;7.20;99.90
32614;DHT22;19031;51.400;6.770;2023-04-02T12:10:04;7.40;99.90
32614;DHT22;19031;51.400;6.770;2023-04-02T12:12:35;7.60;99.90
32614;DHT22;19031;51.400;6.770;2023-04-02T12:15:28;7.70;99.90
32614;DHT22;19031;51.400;6.770;2023-04-02T12:18:15;7.60;99.90
32614;DHT22;19031;51.400;6.770;2023-04-02T12:20:50;7.70;99.90
32614;DHT22;19031;51.400;6.770;2023-04-02T12:23:34;7.70;99.90
32614;DHT22;19031;51.400;6.770;2023-04-02T12:26:24;7.80;99.90
32614;DHT22;19031;51.400;6.770;2023-04-02T12:28:50;7.90;99.90
32614;DHT22;19031;51.400;6.770;2023-04-02T12:31:16;7.80;99.90
32614;DHT22;19031;51.400;6.770;2023-04-02T12:33:44;7.80;99.90
32614;DHT22;19031;51.400;6.770;2023-04-02T12:41:22;8.00;99.90
32614;DHT22;19031;51.400;6.770;2023-04-02T12:44:04;8.30;99.90
32614;DHT22;19031;51.400;6.770;2023-04-02T12:46:34;8.40;99.90
32614;DHT22;19031;51.400;6.770;2023-04-02T12:52:08;8.10;99.90
32614;DHT22;19031;51.400;6.770;2023-04-02T12:54:42;8.20;99.90
32614;DHT22;19031;51.400;6.770;2023-04-02T12:57:26;8.40;99.90
32614;DHT22;19031;51.400;6.770;2023-04-02T13:02:44;8.40;99.90
32614;DHT22;19031;51.400;6.770;2023-04-02T13:05:10;8.40;99.90
32614;DHT22;19031;51.400;6.770;2023-04-02T13:07:36;8.10;99.90
32614;DHT22;19031;51.400;6.770;2023-04-02T13:10:17;8.10;99.90
32614;DHT22;19031;51.400;6.770;2023-04-02T13:12:45;8.30;99.90
32614;DHT22;19031;51.400;6.770;2023-04-02T13:15:24;8.40;99.90
32614;DHT22;19031;51.400;6.770;2023-04-02T13:20:36;8.20;99.90
32614;DHT22;19031;51.400;6.770;2023-04-02T13:23:30;8.20;99.90
32614;DHT22;19031;51.400;6.770;2023-04-02T13:25:59;8.10;99.90
32614;DHT22;19031;51.400;6.770;2023-04-02T13:28:26;8.00;99.90
32614;DHT22;19031;51.400;6.770;2023-04-02T13:30:52;8.20;99.90
32614;DHT22;19031;51.400;6.770;2023-04-02T13:33:17;8.50;99.90
32614;DHT22;19031;51.400;6.770;2023-04-02T13:35:43;8.30;99.90
32614;DHT22;19031;51.400;6.770;2023-04-02T13:38:09;8.30;99.90
32614;DHT22;19031;51.400;6.770;2023-04-02T13:40:36;8.50;99.90
32614;DHT22;19031;51.400;6.770;2023-04-02T13:43:03;8.30;99.90
32614;DHT22;19031;51.400;6.770;2023-04-02T13:45:32;8.20;99.90
32614;DHT22;19031;51.400;6.770;2023-04-02T13:47:59;8.30;99.90
32614;DHT22;19031;51.400;6.770;2023-04-02T13:50:29;8.50;99.90
32614;DHT22;19031;51.400;6.770;2023-04-02T13:53:04;8.60;99.90
32614;DHT22;19031;51.400;6.770;2023-04-02T13:55:34;8.90;99.90
32614;DHT22;19031;51.400;6.770;2023-04-02T13:58:02;8.90;99.90
32614;DHT22;19031;51.400;6.770;2023-04-02T14:00:28;9.20;99.90
32614;DHT22;19031;51.400;6.770;2023-04-02T14:02:59;9.20;99.90
32614;DHT22;19031;51.400;6.770;2023-04-02T14:08:21;9.40;99.90
32614;DHT22;19031;51.400;6.770;2023-04-02T14:11:44;9.50;99.90
32614;DHT22;19031;51.400;6.770;2023-04-02T14:14:02;9.60;99.90
32614;DHT22;19031;51.400;6.770;2023-04-02T14:16:50;10.20;99.90
32614;DHT22;19031;51.400;6.770;2023-04-02T14:25:09;11.00;99.90
32614;DHT22;19031;51.400;6.770;2023-04-02T14:28:01;11.10;99.90
32614;DHT22;19031;51.400;6.770;2023-04-02T14:30:47;10.80;99.90
32614;DHT22;19031;51.400;6.770;2023-04-02T14:36:14;10.70;99.90
32614;DHT22;19031;51.400;6.770;2023-04-02T14:44:33;11.00;99.90
32614;DHT22;19031;51.400;6.770;2023-04-02T14:47:21;11.00;99.90
32614;DHT22;19031;51.400;6.770;2023-04-02T14:49:53;11.00;99.90
32614;DHT22;19031;51.400;6.770;2023-04-02T14:52:21;11.10;99.90
32614;DHT22;19031;51.400;6.770;2023-04-02T14:54:52;10.80;99.90
32614;DHT22;19031;51.400;6.770;2023-04-02T14:57:29;10.60;99.90
32614;DHT22;19031;51.400;6.770;2023-04-02T15:02:41;11.80;99.90
32614;DHT22;19031;51.400;6.770;2023-04-02T15:05:19;11.50;99.90
32614;DHT22;19031;51.400;6.770;2023-04-02T15:10:35;10.40;99.90
32614;DHT22;19031;51.400;6.770;2023-04-02T15:13:06;10.10;99.90
32614;DHT22;19031;51.400;6.770;2023-04-02T15:15:44;9.80;99.90
32614;DHT22;19031;51.400;6.770;2023-04-02T15:18:16;9.80;99.90
32614;DHT22;19031;51.400;6.770;2023-04-02T15:23:54;10.50;99.90
32614;DHT22;19031;51.400;6.770;2023-04-02T15:26:47;11.20;99.90
32614;DHT22;19031;51.400;6.770;2023-04-02T15:29:55;11.80;99.90
32614;DHT22;19031;51.400;6.770;2023-04-02T15:32:35;12.30;99.90
32614;DHT22;19031;51.400;6.770;2023-04-02T15:35:21;12.20;99.90
32614;DHT22;19031;51.400;6.770;2023-04-02T15:40:53;12.10;99.90
32614;DHT22;19031;51.400;6.770;2023-04-02T15:49:01;11.60;99.90
32614;DHT22;19031;51.400;6.770;2023-04-02T16:00:19;12.10;99.90
32614;DHT22;19031;51.400;6.770;2023-04-02T16:09:00;12.20;99.90
32614;DHT22;19031;51.400;6.770;2023-04-02T16:11:27;12.20;99.90
32614;DHT22;19031;51.400;6.770;2023-04-02T16:14:15;12.10;99.90
32614;DHT22;19031;51.400;6.770;2023-04-02T16:16:41;12.00;99.90
32614;DHT22;19031;51.400;6.770;2023-04-02T16:24:14;10.70;99.90
32614;DHT22;19031;51.400;6.770;2023-04-02T16:35:28;11.10;99.90
32614;DHT22;19031;51.400;6.770;2023-04-02T16:41:02;10.40;99.90
32614;DHT22;19031;51.400;6.770;2023-04-02T16:49:16;9.70;99.90
32614;DHT22;19031;51.400;6.770;2023-04-02T16:52:10;9.50;99.90
32614;DHT22;19031;51.400;6.770;2023-04-02T16:55:02;9.30;99.90
32614;DHT22;19031;51.400;6.770;2023-04-02T17:00:37;9.10;99.90
32614;DHT22;19031;51.400;6.770;2023-04-02T17:03:12;9.20;99.90
32614;DHT22;19031;51.400;6.770;2023-04-02T17:05:50;9.20;99.90
32614;DHT22;19031;51.400;6.770;2023-04-02T17:08:24;9.00;99.90
32614;DHT22;19031;51.400;6.770;2023-04-02T17:10:55;8.80;99.90
32614;DHT22;19031;51.400;6.770;2023-04-02T17:16:09;8.80;99.90
32614;DHT22;19031;51.400;6.770;2023-04-02T17:18:38;8.70;99.90
32614;DHT22;19031;51.400;6.770;2023-04-02T17:21:08;8.60;99.90
32614;DHT22;19031;51.400;6.770;2023-04-02T17:24:05;8.60;99.90
32614;DHT22;19031;51.400;6.770;2023-04-02T17:26:39;8.50;99.90
32614;DHT22;19031;51.400;6.770;2023-04-02T17:29:12;8.40;99.90
32614;DHT22;19031;51.400;6.770;2023-04-02T17:31:40;8.30;99.90
32614;DHT22;19031;51.400;6.770;2023-04-02T17:34:15;8.30;99.90
32614;DHT22;19031;51.400;6.770;2023-04-02T17:37:22;8.20;99.90
32614;DHT22;19031;51.400;6.770;2023-04-02T17:45:44;7.80;99.90
32614;DHT22;19031;51.400;6.770;2023-04-02T17:48:20;7.60;99.90
32614;DHT22;19031;51.400;6.770;2023-04-02T17:50:59;7.50;99.90
32614;DHT22;19031;51.400;6.770;2023-04-02T18:04:12;7.00;99.90
32614;DHT22;19031;51.400;6.770;2023-04-02T18:09:49;6.90;99.90
32614;DHT22;19031;51.400;6.770;2023-04-02T18:12:49;6.80;99.90
32614;DHT22;19031;51.400;6.770;2023-04-02T18:17:53;6.60;99.90
32614;DHT22;19031;51.400;6.770;2023-04-02T18:20:45;6.60;99.90
32614;DHT22;19031;51.400;6.770;2023-04-02T18:23:43;6.60;99.90
32614;DHT22;19031;51.400;6.770;2023-04-02T18:31:49;6.20;99.90
32614;DHT22;19031;51.400;6.770;2023-04-02T18:39:53;6.10;99.90
32614;DHT22;19031;51.400;6.770;2023-04-02T18:45:18;6.10;99.90
32614;DHT22;19031;51.400;6.770;2023-04-02T18:50:41;6.00;99.90
32614;DHT22;19031;51.400;6.770;2023-04-02T18:53:13;5.90;99.90
32614;DHT22;19031;51.400;6.770;2023-04-02T18:55:49;5.90;99.90
32614;DHT22;19031;51.400;6.770;2023-04-02T19:01:12;5.70;99.90
32614;DHT22;19031;51.400;6.770;2023-04-02T19:03:44;5.60;99.90
32614;DHT22;19031;51.400;6.770;2023-04-02T19:06:20;5.40;99.90
32614;DHT22;19031;51.400;6.770;2023-04-02T19:08:58;5.40;99.90
32614;DHT22;19031;51.400;6.770;2023-04-02T19:11:26;5.30;99.90
32614;DHT22;19031;51.400;6.770;2023-04-02T19:14:09;5.20;99.90
32614;DHT22;19031;51.400;6.770;2023-04-02T19:16:39;5.10;99.90
32614;DHT22;19031;51.400;6.770;2023-04-02T19:30:31;4.70;99.90
32614;DHT22;19031;51.400;6.770;2023-04-02T19:35:51;4.50;99.90
32614;DHT22;19031;51.400;6.770;2023-04-02T19:43:48;4.40;99.90
32614;DHT22;19031;51.400;6.770;2023-04-02T19:46:13;4.30;99.90
32614;DHT22;19031;51.400;6.770;2023-04-02T19:51:14;4.20;99.90
32614;DHT22;19031;51.400;6.770;2023-04-02T19:53:39;4.20;99.90
32614;DHT22;19031;51.400;6.770;2023-04-02T19:56:05;4.20;99.90
32614;DHT22;19031;51.400;6.770;2023-04-02T19:58:34;4.20;99.90
32614;DHT22;19031;51.400;6.770;2023-04-02T20:01:01;4.10;99.90
32614;DHT22;19031;51.400;6.770;2023-04-02T20:03:27;4.00;99.90
32614;DHT22;19031;51.400;6.770;2023-04-02T20:05:53;3.90;99.90
32614;DHT22;19031;51.400;6.770;2023-04-02T20:08:21;3.90;99.90
32614;DHT22;19031;51.400;6.770;2023-04-02T20:10:47;3.80;99.90
32614;DHT22;19031;51.400;6.770;2023-04-02T20:13:13;3.70;99.90
32614;DHT22;19031;51.400;6.770;2023-04-02T20:15:39;3.70;99.90
32614;DHT22;19031;51.400;6.770;2023-04-02T20:18:05;3.70;99.90
32614;DHT22;19031;51.400;6.770;2023-04-02T20:20:31;3.80;99.90
32614;DHT22;19031;51.400;6.770;2023-04-02T20:22:56;3.70;99.90
32614;DHT22;19031;51.400;6.770;2023-04-02T20:25:22;3.60;99.90
32614;DHT22;19031;51.400;6.770;2023-04-02T20:27:47;3.60;99.90
32614;DHT22;19031;51.400;6.770;2023-04-02T20:30:13;3.60;99.90
32614;DHT22;19031;51.400;6.770;2023-04-02T20:32:39;3.40;99.90
32614;DHT22;19031;51.400;6.770;2023-04-02T20:35:05;3.50;99.90
32614;DHT22;19031;51.400;6.770;2023-04-02T20:37:31;3.40;99.90
32614;DHT22;19031;51.400;6.770;2023-04-02T20:39:57;3.30;99.90
32614;DHT22;19031;51.400;6.770;2023-04-02T20:42:24;3.20;99.90
32614;DHT22;19031;51.400;6.770;2023-04-02T20:44:50;3.30;99.90
32614;DHT22;19031;51.400;6.770;2023-04-02T20:47:16;3.30;99.90
32614;DHT22;19031;51.400;6.770;2023-04-02T20:49:41;3.30;99.90
32614;DHT22;19031;51.400;6.770;2023-04-02T20:52:07;3.10;99.90
32614;DHT22;19031;51.400;6.770;2023-04-02T20:54:33;3.10;99.90
32614;DHT22;19031;51.400;6.770;2023-04-02T20:56:59;3.10;99.90
32614;DHT22;19031;51.400;6.770;2023-04-02T20:59:24;3.00;99.90
32614;DHT22;19031;51.400;6.770;2023-04-02T21:01:50;2.90;99.90
32614;DHT22;19031;51.400;6.770;2023-04-02T21:04:15;3.00;99.90
32614;DHT22;19031;51.400;6.770;2023-04-02T21:06:41;3.00;99.90
32614;DHT22;19031;51.400;6.770;2023-04-02T21:09:12;2.80;99.90
32614;DHT22;19031;51.400;6.770;2023-04-02T21:11:39;2.90;99.90
32614;DHT22;19031;51.400;6.770;2023-04-02T21:14:05;2.80;99.90
32614;DHT22;19031;51.400;6.770;2023-04-02T21:16:34;2.70;99.90
32614;DHT22;19031;51.400;6.770;2023-04-02T21:19:03;2.70;99.90
32614;DHT22;19031;51.400;6.770;2023-04-02T21:21:29;2.70;99.90